Haelen, Netherlands
Current Conditions -  °F | °C
As of 4:25 AM on Sunday 25 Jan 2015 (Local Time) from EBBL Reporting Station
Broken Clouds Broken Clouds  
Wind Chill: 25°   Ceiling: 16000
Heat Index: 30°   Visibility: 4mi
Dew Point: 30°   Wind: 5mph
Humidity: 100%   Direction: 240°WSW
Pressure: 30.39"   Gusts: NA
Location:  51.24°N, 5.96°E
Report Text: EBBL 250325Z AUTO 24004KT 6000 FEW030/// SCT044/// BKN160/// M01/M01 Q1029 WHT
Loading
Personal Weather Stations






























Interactive Weather Map New forecast layout! Learn more

10-Day Weather Forecast

Advertisements
Track Severe Weather on mobile